createdAt,value
2023-07-02T00:02:06.078Z,99.19
2023-07-02T00:04:32.644Z,99.70
2023-07-02T00:06:59.734Z,100.00
2023-07-02T00:09:26.355Z,100.00
2023-07-02T00:11:52.912Z,100.00
2023-07-02T00:14:19.471Z,100.00
2023-07-02T00:16:47.391Z,100.00
2023-07-02T00:19:17.739Z,100.00
2023-07-02T00:21:44.693Z,100.00
2023-07-02T00:24:11.565Z,100.00
2023-07-02T00:26:39.418Z,100.00
2023-07-02T00:29:07.239Z,100.00
2023-07-02T00:31:34.678Z,100.00
2023-07-02T00:34:05.163Z,100.00
2023-07-02T00:36:32.460Z,100.00
2023-07-02T00:38:59.754Z,100.00
2023-07-02T00:41:26.439Z,100.00
2023-07-02T00:43:55.449Z,100.00
2023-07-02T00:46:23.910Z,100.00
2023-07-02T00:48:52.317Z,100.00
2023-07-02T00:51:22.117Z,100.00
2023-07-02T00:53:50.475Z,100.00
2023-07-02T00:56:17.752Z,100.00
2023-07-02T00:58:49.702Z,100.00
2023-07-02T01:01:17.692Z,100.00
2023-07-02T01:03:54.886Z,100.00
2023-07-02T01:06:27.579Z,100.00
2023-07-02T01:09:02.124Z,100.00
2023-07-02T01:11:32.617Z,100.00
2023-07-02T01:14:23.133Z,100.00
2023-07-02T01:16:51.491Z,100.00
2023-07-02T01:19:26.625Z,100.00
2023-07-02T01:21:53.388Z,100.00
2023-07-02T01:24:22.302Z,100.00
2023-07-02T01:26:49.173Z,100.00
2023-07-02T01:29:20.894Z,100.00
2023-07-02T01:31:48.632Z,100.00
2023-07-02T01:34:15.599Z,100.00
2023-07-02T01:36:42.351Z,100.00
2023-07-02T01:39:09.043Z,100.00
2023-07-02T01:41:43.893Z,100.00
2023-07-02T01:44:10.565Z,100.00
2023-07-02T01:46:37.199Z,99.99
2023-07-02T01:49:03.811Z,99.41
2023-07-02T01:51:30.365Z,99.81
2023-07-02T01:53:56.890Z,99.22
2023-07-02T01:56:23.470Z,99.10
2023-07-02T01:58:50.051Z,99.08
2023-07-02T02:01:16.671Z,98.02
2023-07-02T02:03:43.358Z,98.94
2023-07-02T02:06:10.038Z,98.03
2023-07-02T02:08:36.593Z,97.80
2023-07-02T02:11:03.309Z,98.38
2023-07-02T02:13:29.958Z,97.60
2023-07-02T02:15:56.589Z,97.74
2023-07-02T02:18:23.167Z,97.58
2023-07-02T02:20:50.551Z,97.94
2023-07-02T02:23:17.302Z,97.23
2023-07-02T02:25:43.810Z,98.18
2023-07-02T02:28:10.295Z,97.22
2023-07-02T02:30:38.077Z,97.45
2023-07-02T02:33:04.655Z,97.83
2023-07-02T02:35:31.177Z,99.10
2023-07-02T02:37:57.887Z,97.71
2023-07-02T02:40:24.469Z,98.00
2023-07-02T02:42:50.971Z,97.79
2023-07-02T02:45:17.504Z,97.26
2023-07-02T02:47:44.110Z,98.47
2023-07-02T02:50:13.867Z,97.06
2023-07-02T02:52:40.613Z,96.96
2023-07-02T02:55:08.911Z,96.58
2023-07-02T02:57:35.465Z,96.98
2023-07-02T03:00:02.052Z,97.94
2023-07-02T03:02:29.018Z,97.22
2023-07-02T03:04:57.727Z,96.80
2023-07-02T03:07:24.363Z,97.38
2023-07-02T03:09:50.917Z,97.48
2023-07-02T03:12:17.431Z,97.58
2023-07-02T03:14:44.208Z,98.22
2023-07-02T03:17:10.696Z,98.02
2023-07-02T03:19:37.365Z,98.19
2023-07-02T03:22:03.945Z,98.22
2023-07-02T03:24:30.493Z,97.87
2023-07-02T03:26:57.075Z,98.30
2023-07-02T03:29:23.584Z,97.99
2023-07-02T03:31:50.088Z,99.15
2023-07-02T03:34:16.767Z,98.24
2023-07-02T03:36:43.319Z,98.49
2023-07-02T03:39:10.897Z,98.72
2023-07-02T03:41:37.642Z,97.80
2023-07-02T03:44:04.376Z,97.96
2023-07-02T03:46:32.281Z,98.29
2023-07-02T03:48:59.177Z,98.37
2023-07-02T03:51:25.905Z,97.56
2023-07-02T03:53:52.671Z,98.42
2023-07-02T03:56:19.274Z,99.82
2023-07-02T03:58:45.874Z,99.33
2023-07-02T04:01:14.674Z,99.35
2023-07-02T04:03:50.466Z,98.66
2023-07-02T04:06:17.742Z,98.77
2023-07-02T04:08:44.938Z,97.86
2023-07-02T04:11:12.801Z,97.68
2023-07-02T04:13:40.407Z,98.60
2023-07-02T04:16:07.202Z,97.00
2023-07-02T04:18:34.007Z,97.23
2023-07-02T04:21:02.969Z,96.50
2023-07-02T04:23:29.509Z,96.28
2023-07-02T04:26:12.618Z,95.40
2023-07-02T04:28:43.497Z,95.65
2023-07-02T04:31:10.140Z,95.37
2023-07-02T04:33:37.396Z,94.52
2023-07-02T04:36:05.011Z,94.27
2023-07-02T04:38:31.727Z,94.35
2023-07-02T04:41:06.515Z,94.05
2023-07-02T04:43:34.586Z,93.61
2023-07-02T04:46:01.477Z,93.26
2023-07-02T04:48:28.530Z,92.89
2023-07-02T04:50:55.421Z,92.68
2023-07-02T04:53:21.957Z,92.34
2023-07-02T04:55:48.511Z,92.25
2023-07-02T04:58:15.154Z,92.44
2023-07-02T05:00:41.692Z,92.15
2023-07-02T05:03:08.380Z,92.67
2023-07-02T05:05:35.080Z,91.83
2023-07-02T05:08:01.626Z,91.87
2023-07-02T05:10:28.152Z,92.05
2023-07-02T05:12:54.736Z,91.17
2023-07-02T05:15:21.284Z,91.54
2023-07-02T05:17:47.952Z,90.99
2023-07-02T05:20:14.514Z,90.67
2023-07-02T05:22:41.009Z,89.68
2023-07-02T05:25:07.921Z,88.42
2023-07-02T05:27:34.565Z,85.49
2023-07-02T05:30:01.091Z,85.77
2023-07-02T05:32:27.633Z,85.99
2023-07-02T05:34:54.166Z,87.31
2023-07-02T05:37:20.915Z,87.45
2023-07-02T05:39:47.437Z,87.85
2023-07-02T05:42:13.962Z,89.11
2023-07-02T05:44:40.528Z,88.59
2023-07-02T05:47:07.282Z,88.39
2023-07-02T05:49:34.116Z,89.04
2023-07-02T05:52:00.767Z,88.70
2023-07-02T05:54:27.369Z,88.91
2023-07-02T05:56:53.850Z,87.77
2023-07-02T05:59:20.438Z,87.98
2023-07-02T06:01:47.112Z,88.48
2023-07-02T06:04:13.706Z,87.61
2023-07-02T06:06:40.379Z,88.16
2023-07-02T06:09:06.912Z,87.52
2023-07-02T06:11:33.564Z,87.16
2023-07-02T06:14:52.972Z,87.37
2023-07-02T06:17:19.818Z,87.28
2023-07-02T06:19:46.447Z,86.80
2023-07-02T06:22:13.006Z,85.82
2023-07-02T06:24:39.535Z,86.37
2023-07-02T06:27:06.136Z,85.02
2023-07-02T06:29:32.680Z,84.33
2023-07-02T06:32:00.914Z,84.72
2023-07-02T06:34:27.619Z,84.22
2023-07-02T06:36:54.163Z,85.04
2023-07-02T06:39:20.872Z,83.11
2023-07-02T06:41:47.487Z,83.05
2023-07-02T06:44:14.039Z,86.20
2023-07-02T06:46:40.777Z,82.01
2023-07-02T06:49:07.764Z,81.67
2023-07-02T06:51:35.350Z,81.63
2023-07-02T06:54:01.904Z,81.69
2023-07-02T06:56:28.422Z,82.34
2023-07-02T06:58:55.013Z,81.17
2023-07-02T07:01:21.571Z,79.38
2023-07-02T07:03:48.244Z,79.08
2023-07-02T07:06:14.789Z,78.54
2023-07-02T07:08:41.357Z,79.36
2023-07-02T07:11:07.982Z,79.06
2023-07-02T07:13:34.579Z,78.11
2023-07-02T07:16:01.141Z,75.62
2023-07-02T07:18:29.694Z,74.50
2023-07-02T07:20:57.868Z,75.03
2023-07-02T07:23:24.437Z,73.06
2023-07-02T07:25:51.153Z,75.42
2023-07-02T07:28:17.968Z,75.89
2023-07-02T07:30:44.780Z,74.85
2023-07-02T07:33:11.677Z,72.14
2023-07-02T07:35:38.368Z,71.79
2023-07-02T07:38:04.933Z,72.03
2023-07-02T07:40:31.458Z,73.77
2023-07-02T07:42:57.929Z,73.26
2023-07-02T07:45:24.547Z,71.55
2023-07-02T07:47:51.112Z,72.48
2023-07-02T07:50:17.817Z,72.13
2023-07-02T07:52:44.443Z,70.63
2023-07-02T07:55:11.170Z,70.67
2023-07-02T07:57:38.589Z,68.32
2023-07-02T08:00:09.048Z,69.91
2023-07-02T08:02:35.808Z,68.64
2023-07-02T08:05:03.756Z,67.14
2023-07-02T08:07:30.417Z,67.02
2023-07-02T08:09:56.938Z,68.53
2023-07-02T08:12:23.588Z,67.14
2023-07-02T08:14:50.444Z,67.37
2023-07-02T08:17:16.946Z,67.56
2023-07-02T08:19:43.580Z,63.89
2023-07-02T08:22:10.195Z,64.17
2023-07-02T08:24:36.815Z,64.98
2023-07-02T08:27:06.336Z,63.60
2023-07-02T08:29:33.151Z,64.58
2023-07-02T08:31:59.976Z,67.39
2023-07-02T08:34:26.620Z,63.59
2023-07-02T08:36:53.363Z,61.68
2023-07-02T08:39:19.912Z,61.64
2023-07-02T08:41:48.497Z,61.26
2023-07-02T08:44:22.113Z,61.75
2023-07-02T08:46:51.958Z,65.83
2023-07-02T08:49:18.975Z,61.59
2023-07-02T08:51:46.820Z,59.95
2023-07-02T08:54:13.809Z,61.77
2023-07-02T08:56:40.899Z,61.50
2023-07-02T08:59:09.225Z,61.14
2023-07-02T09:01:56.392Z,61.68
2023-07-02T09:04:27.148Z,60.95
2023-07-02T09:07:07.365Z,61.60
2023-07-02T09:09:34.454Z,60.57
2023-07-02T09:12:01.628Z,61.77
2023-07-02T09:14:32.513Z,60.25
2023-07-02T09:17:17.332Z,62.25
2023-07-02T09:19:52.983Z,62.19
2023-07-02T09:22:19.529Z,59.30
2023-07-02T09:24:59.086Z,61.27
2023-07-02T09:27:44.835Z,59.40
2023-07-02T09:30:18.818Z,57.69
2023-07-02T09:32:47.040Z,55.28
2023-07-02T09:35:15.271Z,54.47
2023-07-02T09:37:46.096Z,54.97
2023-07-02T09:40:13.397Z,53.58
2023-07-02T09:42:41.665Z,53.30
2023-07-02T09:45:09.742Z,50.98
2023-07-02T09:47:42.801Z,52.67
2023-07-02T09:50:11.464Z,54.40
2023-07-02T09:52:38.774Z,54.21
2023-07-02T09:55:05.832Z,58.44
2023-07-02T09:57:32.749Z,53.12
2023-07-02T10:00:01.799Z,53.37
2023-07-02T10:02:28.521Z,50.28
2023-07-02T10:04:56.434Z,50.49
2023-07-02T10:07:30.974Z,50.85
2023-07-02T10:09:58.043Z,52.56
2023-07-02T10:12:31.381Z,50.85
2023-07-02T10:14:59.999Z,49.45
2023-07-02T10:17:30.588Z,49.43
2023-07-02T10:20:02.278Z,47.18
2023-07-02T10:22:29.082Z,47.60
2023-07-02T10:25:03.248Z,47.63
2023-07-02T10:27:48.720Z,47.97
2023-07-02T10:30:15.823Z,47.86
2023-07-02T10:32:45.223Z,49.01
2023-07-02T10:35:17.132Z,48.66
2023-07-02T10:37:44.634Z,48.07
2023-07-02T10:40:12.398Z,48.03
2023-07-02T10:42:50.756Z,49.08
2023-07-02T10:45:17.582Z,47.47
2023-07-02T10:47:44.497Z,48.33
2023-07-02T10:50:18.136Z,49.25
2023-07-02T10:52:44.803Z,50.82
2023-07-02T10:55:11.349Z,50.58
2023-07-02T10:57:38.016Z,54.26
2023-07-02T11:00:06.466Z,51.36
2023-07-02T11:02:39.762Z,52.69
2023-07-02T11:05:07.881Z,50.79
2023-07-02T11:07:34.815Z,52.93
2023-07-02T11:10:03.359Z,52.04
2023-07-02T11:12:33.356Z,50.94
2023-07-02T11:15:14.536Z,50.42
2023-07-02T11:17:43.910Z,49.64
2023-07-02T11:20:12.585Z,52.46
2023-07-02T11:22:40.113Z,51.78
2023-07-02T11:25:23.446Z,52.73
2023-07-02T11:27:57.719Z,52.81
2023-07-02T11:30:33.561Z,50.48
2023-07-02T11:33:11.025Z,51.90
2023-07-02T11:35:37.787Z,49.22
2023-07-02T11:38:09.360Z,49.64
2023-07-02T11:40:35.959Z,51.52
2023-07-02T11:43:05.010Z,49.36
2023-07-02T11:45:31.990Z,48.23
2023-07-02T11:48:01.277Z,51.01
2023-07-02T11:50:28.268Z,48.21
2023-07-02T11:52:57.004Z,48.53
2023-07-02T11:55:23.727Z,47.18
2023-07-02T11:58:00.716Z,47.37
2023-07-02T12:00:28.141Z,46.64
2023-07-02T12:02:54.946Z,50.45
2023-07-02T12:05:26.809Z,47.99
2023-07-02T12:07:53.859Z,45.29
2023-07-02T12:10:20.845Z,48.01
2023-07-02T12:12:47.418Z,47.47
2023-07-02T12:15:16.468Z,47.79
2023-07-02T12:17:43.147Z,47.75
2023-07-02T12:20:10.413Z,49.23
2023-07-02T12:22:37.288Z,48.36
2023-07-02T12:25:04.332Z,47.36
2023-07-02T12:27:31.102Z,46.16
2023-07-02T12:29:57.968Z,47.05
2023-07-02T12:32:24.562Z,48.89
2023-07-02T12:34:51.253Z,47.58
2023-07-02T12:37:20.027Z,48.56
2023-07-02T12:39:49.293Z,47.44
2023-07-02T12:42:15.882Z,46.65
2023-07-02T12:44:42.549Z,45.81
2023-07-02T12:47:35.037Z,47.13
2023-07-02T12:50:02.196Z,46.32
2023-07-02T12:52:30.702Z,46.02
2023-07-02T12:54:57.803Z,47.85
2023-07-02T13:00:00.995Z,44.15
2023-07-02T13:02:30.319Z,42.74
2023-07-02T13:04:57.106Z,44.53
2023-07-02T13:07:25.207Z,44.67
2023-07-02T13:09:51.772Z,44.41
2023-07-02T13:12:19.270Z,47.66
2023-07-02T13:14:45.851Z,45.00
2023-07-02T13:17:12.482Z,45.68
2023-07-02T13:19:39.131Z,45.36
2023-07-02T13:22:06.286Z,44.48
2023-07-02T13:24:38.644Z,44.95
2023-07-02T13:27:10.979Z,44.53
2023-07-02T13:29:37.642Z,45.49
2023-07-02T13:32:04.676Z,48.68
2023-07-02T13:34:31.256Z,44.43
2023-07-02T13:36:57.849Z,46.69
2023-07-02T13:39:24.511Z,42.36
2023-07-02T13:41:51.753Z,44.72
2023-07-02T13:44:18.743Z,45.05
2023-07-02T13:46:46.682Z,43.29
2023-07-02T13:49:13.317Z,43.04
2023-07-02T13:51:39.894Z,43.55
2023-07-02T13:54:06.496Z,42.19
2023-07-02T13:56:33.162Z,44.17
2023-07-02T13:59:02.165Z,43.14
2023-07-02T14:01:29.020Z,44.11
2023-07-02T14:03:55.975Z,43.47
2023-07-02T14:06:22.828Z,43.91
2023-07-02T14:08:49.529Z,46.77
2023-07-02T14:11:16.257Z,43.72
2023-07-02T14:13:42.917Z,43.51
2023-07-02T14:16:09.657Z,44.36
2023-07-02T14:18:36.290Z,42.95
2023-07-02T14:21:05.027Z,43.40
2023-07-02T14:23:31.690Z,46.48
2023-07-02T14:25:58.262Z,45.14
2023-07-02T14:28:27.109Z,46.15
2023-07-02T14:30:59.133Z,46.65
2023-07-02T14:33:26.772Z,45.60
2023-07-02T14:35:53.444Z,44.88
2023-07-02T14:38:20.215Z,43.66
2023-07-02T14:40:48.196Z,42.91
2023-07-02T14:43:14.966Z,43.83
2023-07-02T14:45:49.013Z,44.50
2023-07-02T14:48:16.995Z,46.47
2023-07-02T14:50:45.847Z,45.93
2023-07-02T14:53:12.871Z,46.03
2023-07-02T14:55:40.957Z,49.79
2023-07-02T14:58:08.174Z,47.13
2023-07-02T15:00:36.390Z,44.76
2023-07-02T15:03:03.381Z,46.10
2023-07-02T15:05:30.443Z,44.15
2023-07-02T15:07:57.150Z,43.43
2023-07-02T15:10:23.739Z,45.81
2023-07-02T15:12:50.343Z,43.74
2023-07-02T15:15:17.770Z,45.94
2023-07-02T15:17:44.654Z,45.51
2023-07-02T15:20:11.944Z,46.79
2023-07-02T15:22:38.790Z,43.91
2023-07-02T15:25:06.289Z,44.44
2023-07-02T15:27:32.981Z,45.00
2023-07-02T15:29:59.660Z,43.26
2023-07-02T15:32:26.349Z,43.76
2023-07-02T15:34:53.872Z,44.87
2023-07-02T15:37:20.512Z,44.26
2023-07-02T15:39:47.120Z,44.64
2023-07-02T15:42:13.694Z,44.73
2023-07-02T15:44:40.356Z,44.94
2023-07-02T15:47:07.343Z,45.79
2023-07-02T15:49:34.009Z,45.41
2023-07-02T15:52:00.547Z,44.28
2023-07-02T15:54:27.162Z,44.78
2023-07-02T15:56:53.775Z,45.22
2023-07-02T15:59:20.481Z,45.87
2023-07-02T16:01:50.118Z,45.84
2023-07-02T16:04:17.314Z,48.38
2023-07-02T16:06:45.478Z,46.18
2023-07-02T16:09:12.088Z,46.54
2023-07-02T16:11:42.975Z,47.77
2023-07-02T16:14:16.828Z,50.16
2023-07-02T16:16:46.325Z,48.41
2023-07-02T16:19:16.150Z,49.43
2023-07-02T16:21:43.246Z,48.20
2023-07-02T16:24:21.275Z,50.05
2023-07-02T16:26:48.742Z,48.93
2023-07-02T16:29:16.148Z,50.17
2023-07-02T16:31:49.139Z,47.47
2023-07-02T16:34:18.665Z,46.70
2023-07-02T16:36:46.671Z,46.30
2023-07-02T16:39:15.289Z,45.94
2023-07-02T16:41:49.137Z,46.54
2023-07-02T16:44:36.741Z,46.63
2023-07-02T16:47:03.666Z,47.83
2023-07-02T16:49:30.272Z,48.23
2023-07-02T16:51:57.297Z,47.71
2023-07-02T16:54:25.528Z,48.07
2023-07-02T16:56:54.645Z,47.90
2023-07-02T16:59:23.829Z,47.70
2023-07-02T17:01:54.904Z,47.50
2023-07-02T17:04:23.594Z,46.67
2023-07-02T17:06:53.156Z,46.17
2023-07-02T17:09:33.867Z,46.35
2023-07-02T17:12:03.283Z,46.50
2023-07-02T17:14:34.363Z,46.61
2023-07-02T17:17:05.376Z,47.77
2023-07-02T17:19:34.820Z,47.69
2023-07-02T17:22:06.037Z,47.56
2023-07-02T17:24:35.642Z,48.25
2023-07-02T17:27:03.338Z,48.70
2023-07-02T17:29:33.004Z,48.62
2023-07-02T17:32:02.841Z,48.88
2023-07-02T17:34:30.684Z,49.10
2023-07-02T17:36:59.632Z,50.09
2023-07-02T17:39:27.787Z,49.11
2023-07-02T17:41:55.747Z,49.66
2023-07-02T17:44:28.091Z,50.91
2023-07-02T17:46:57.025Z,49.29
2023-07-02T17:49:25.955Z,49.43
2023-07-02T17:51:52.896Z,49.71
2023-07-02T17:54:20.644Z,49.82
2023-07-02T17:56:48.407Z,49.51
2023-07-02T17:59:16.240Z,49.89
2023-07-02T18:01:44.595Z,49.58
2023-07-02T18:04:12.218Z,52.12
2023-07-02T18:06:42.684Z,50.78
2023-07-02T18:09:10.126Z,50.52
2023-07-02T18:11:38.369Z,50.68
2023-07-02T18:14:06.279Z,50.86
2023-07-02T18:16:33.624Z,51.18
2023-07-02T18:19:00.788Z,51.28
2023-07-02T18:21:27.986Z,51.73
2023-07-02T18:23:54.663Z,51.57
2023-07-02T18:26:21.218Z,50.69
2023-07-02T18:28:47.741Z,50.83
2023-07-02T18:31:14.515Z,51.14
2023-07-02T18:33:41.095Z,51.12
2023-07-02T18:36:12.550Z,51.78
2023-07-02T18:38:39.294Z,51.77
2023-07-02T18:41:12.460Z,52.31
2023-07-02T18:43:39.664Z,52.25
2023-07-02T18:46:06.963Z,52.65
2023-07-02T18:48:33.959Z,52.24
2023-07-02T18:51:00.728Z,53.13
2023-07-02T18:53:27.423Z,52.99
2023-07-02T18:56:03.909Z,52.74
2023-07-02T18:58:34.023Z,52.33
2023-07-02T19:01:06.982Z,53.05
2023-07-02T19:03:33.826Z,52.25
2023-07-02T19:06:11.901Z,52.31
2023-07-02T19:08:38.887Z,52.78
2023-07-02T19:11:07.503Z,52.57
2023-07-02T19:13:39.458Z,53.33
2023-07-02T19:16:06.311Z,54.03
2023-07-02T19:18:33.008Z,53.98
2023-07-02T19:21:01.409Z,53.64
2023-07-02T19:23:32.259Z,53.74
2023-07-02T19:25:59.480Z,53.57
2023-07-02T19:28:26.171Z,55.43
2023-07-02T19:30:57.847Z,54.71
2023-07-02T19:33:25.228Z,55.16
2023-07-02T19:35:52.122Z,56.03
2023-07-02T19:38:18.782Z,55.82
2023-07-02T19:40:53.834Z,55.40
2023-07-02T19:43:20.538Z,55.64
2023-07-02T19:45:47.208Z,56.33
2023-07-02T19:48:15.692Z,56.58
2023-07-02T19:50:42.543Z,57.67
2023-07-02T19:53:09.413Z,57.27
2023-07-02T19:56:01.786Z,57.53
2023-07-02T19:58:36.513Z,57.54
2023-07-02T20:01:03.538Z,58.12
2023-07-02T20:03:33.053Z,58.07
2023-07-02T20:06:00.091Z,58.51
2023-07-02T20:08:27.305Z,59.28
2023-07-02T20:10:53.949Z,58.95
2023-07-02T20:13:20.700Z,59.23
2023-07-02T20:15:48.776Z,61.82
2023-07-02T20:18:16.512Z,59.90
2023-07-02T20:20:43.499Z,59.89
2023-07-02T20:23:10.063Z,61.00
2023-07-02T20:28:08.248Z,60.77
2023-07-02T20:30:34.830Z,61.01
2023-07-02T20:33:04.480Z,60.37
2023-07-02T20:35:31.132Z,60.43
2023-07-02T20:37:57.793Z,60.81
2023-07-02T20:40:24.452Z,61.47
2023-07-02T20:42:53.584Z,61.64
2023-07-02T20:45:22.160Z,61.23
2023-07-02T20:47:48.807Z,61.36
2023-07-02T20:50:16.165Z,61.82
2023-07-02T20:52:45.072Z,62.16
2023-07-02T20:55:11.671Z,62.12
2023-07-02T20:57:38.249Z,62.51
2023-07-02T21:00:12.033Z,62.99
2023-07-02T21:02:43.698Z,64.26
2023-07-02T21:05:11.504Z,64.50
2023-07-02T21:07:38.087Z,64.62
2023-07-02T21:10:04.914Z,64.71
2023-07-02T21:12:31.455Z,65.73
2023-07-02T21:14:58.230Z,66.24
2023-07-02T21:17:24.862Z,65.74
2023-07-02T21:19:51.476Z,65.99
2023-07-02T21:22:18.213Z,66.25
2023-07-02T21:24:49.769Z,66.27
2023-07-02T21:27:16.644Z,66.72
2023-07-02T21:29:43.378Z,67.17
2023-07-02T21:32:10.296Z,67.48
2023-07-02T21:34:37.096Z,67.67
2023-07-02T21:37:06.159Z,67.80
2023-07-02T21:39:32.766Z,68.28
2023-07-02T21:41:59.323Z,68.82
2023-07-02T21:44:25.965Z,69.55
2023-07-02T21:46:53.620Z,69.95
2023-07-02T21:49:20.359Z,69.76
2023-07-02T21:51:46.957Z,69.96
2023-07-02T21:54:13.596Z,70.48
2023-07-02T21:56:40.168Z,70.68
2023-07-02T21:59:06.771Z,71.19
2023-07-02T22:01:33.508Z,71.11
2023-07-02T22:04:01.246Z,71.16
2023-07-02T22:06:28.006Z,71.90
2023-07-02T22:08:54.717Z,72.45
2023-07-02T22:11:24.204Z,71.77
2023-07-02T22:13:55.124Z,71.99
2023-07-02T22:16:22.028Z,72.13
2023-07-02T22:18:49.317Z,72.30
2023-07-02T22:21:17.594Z,72.49
2023-07-02T22:23:46.916Z,72.58
2023-07-02T22:26:13.779Z,72.60
2023-07-02T22:28:40.440Z,73.52
2023-07-02T22:31:07.199Z,73.04
2023-07-02T22:33:33.943Z,73.25
2023-07-02T22:36:00.554Z,73.44
2023-07-02T22:38:27.614Z,73.42
2023-07-02T22:40:54.348Z,73.63
2023-07-02T22:43:20.947Z,73.74
2023-07-02T22:45:47.761Z,73.79
2023-07-02T22:48:14.442Z,73.93
2023-07-02T22:50:41.029Z,74.33
2023-07-02T22:53:07.583Z,75.25
2023-07-02T22:55:34.197Z,74.27
2023-07-02T22:58:02.543Z,74.50
2023-07-02T23:00:29.567Z,74.65
2023-07-02T23:02:56.264Z,74.46
2023-07-02T23:05:23.931Z,74.48
2023-07-02T23:07:50.857Z,75.53
2023-07-02T23:10:17.835Z,75.64
2023-07-02T23:12:50.279Z,75.11
2023-07-02T23:15:19.128Z,74.58
2023-07-02T23:17:53.472Z,74.52
2023-07-02T23:20:21.064Z,74.95
2023-07-02T23:22:51.565Z,74.77
2023-07-02T23:25:23.960Z,74.84
2023-07-02T23:27:54.429Z,75.06
2023-07-02T23:30:26.623Z,75.75
2023-07-02T23:32:54.521Z,75.09
2023-07-02T23:35:21.976Z,75.28
2023-07-02T23:37:51.697Z,76.06
2023-07-02T23:40:19.088Z,75.41
2023-07-02T23:42:46.188Z,75.42
2023-07-02T23:45:14.498Z,75.44
2023-07-02T23:47:42.139Z,75.43
2023-07-02T23:50:11.794Z,75.12
2023-07-02T23:52:39.070Z,75.01
2023-07-02T23:55:08.052Z,75.11
2023-07-02T23:57:35.259Z,74.88
